Maersk Bulan — 9V7693 — position and weather

sailwx.info

Track history (hours):
 
Tides and Currents Weather Stations Pressure Air Temp Water Temp Dewpoint Dewpoint Depression Visibility Wind Speed Wind Dir Waves Ship Positions

Maersk Bulan

Last reported at 2016-Jul-28 05:10 UTC. Time now 2016-Jul-30 13:04 UTC.
Position N 34°54' W 010°32'.

Length 223 m; draft 10.7 m.

Type: Ship (hazmat cat A). MMSI: 563455000.

Date/timePositionNaut miles runAvg speedWind from/ knotsBaromVisibWave heightAir tempDewpointWater temp
2016-Jul-28 05:10N 34°54' W 010°32'5712.0
2016-Jul-28 00:25N 35°10' W 009°25'4611.8
2016-Jul-27 20:33N 35°24' W 008°32'1211.5
2016-Jul-27 19:32N 35°28' W 008°19'2511.5
2016-Jul-27 17:24N 35°35' W 007°50'1011.2
2016-Jul-27 16:32N 35°38' W 007°38'1311.3
2016-Jul-27 15:22N 35°42' W 007°23'1311.5
2016-Jul-27 14:17N 35°45' W 007°08'811.5
2016-Jul-27 13:34N 35°48' W 006°58'2311.3
2016-Jul-27 11:33N 35°54' W 006°32'5210.4
2016-Jul-27 06:33N 35°60' W 005°28'9 9.1
2016-Jul-27 05:33N 36°09' W 005°24'1 1.4
2016-Jul-27 04:33N 36°08' W 005°26'0 0.0
2016-Jul-27 03:33N 36°08' W 005°26'0 0.0
2016-Jul-27 02:33N 36°08' W 005°26'0 0.0
2016-Jul-27 01:33N 36°08' W 005°26'0 0.0
2016-Jul-27 00:33N 36°08' W 005°26'0 0.0
2016-Jul-26 23:33N 36°08' W 005°26'0 0.0
2016-Jul-26 22:33N 36°08' W 005°26'0 0.0
2016-Jul-26 21:33N 36°08' W 005°26'0 0.0
2016-Jul-26 20:30N 36°08' W 005°26'0 0.0
2016-Jul-26 19:33N 36°08' W 005°26'0 0.0
2016-Jul-26 18:33N 36°08' W 005°26'0 0.0
2016-Jul-26 17:30N 36°08' W 005°26'0 0.0
2016-Jul-26 16:33N 36°08' W 005°26'0 0.0
2016-Jul-26 15:30N 36°08' W 005°26'0 0.0
2016-Jul-26 14:33N 36°08' W 005°26'0 0.0
2016-Jul-26 13:33N 36°08' W 005°26'0 0.0
2016-Jul-26 12:33N 36°08' W 005°26'0 0.0
2016-Jul-26 11:33N 36°08' W 005°26'0 0.0
2016-Jul-26 10:30N 36°08' W 005°26'0 0.0
2016-Jul-26 09:33N 36°08' W 005°26'0 0.0
2016-Jul-26 08:33N 36°08' W 005°26'0 0.0
2016-Jul-26 07:33N 36°08' W 005°26'0 0.0
2016-Jul-26 06:30N 36°08' W 005°26'0 0.0
2016-Jul-26 05:33N 36°08' W 005°26'0 0.0
2016-Jul-26 04:33N 36°08' W 005°26'0 0.0
2016-Jul-26 03:33N 36°08' W 005°26'0 0.0
2016-Jul-26 02:30N 36°08' W 005°26'0 0.0
2016-Jul-26 01:33N 36°08' W 005°26'0 0.0
2016-Jul-26 00:33N 36°08' W 005°26'2 2.1
2016-Jul-25 23:28N 36°08' W 005°23'1112.1
2016-Jul-25 22:33N 36°07' W 005°10'201 9.4
2016-Jul-25 01:07N 36°30' W 001°02'811.5
2016-Jul-25 00:22N 36°32' W 000°52'911.3
2016-Jul-24 23:33N 36°33' W 000°41'1311.2
2016-Jul-24 22:23N 36°36' W 000°25'3110.7
2016-Jul-24 19:32N 36°39' E 000°13'1111.3
2016-Jul-24 18:33N 36°41' E 000°27'2411.4
2016-Jul-24 16:25N 36°46' E 000°57'1211.3
2016-Jul-24 15:22N 36°47' E 001°11'39011.2
2016-Jul-23 04:33N 37°43' E 009°16'1010.1
2016-Jul-23 03:31N 37°42' E 009°29'10 9.8
2016-Jul-23 02:31N 37°41' E 009°41'1210.2
2016-Jul-23 01:21N 37°39' E 009°56'910.7
2016-Jul-23 00:32N 37°39' E 010°07'1111.0
2016-Jul-22 23:33N 37°38' E 010°21'1111.4
2016-Jul-22 22:33N 37°35' E 010°34'1211.6
2016-Jul-22 21:33N 37°32' E 010°49'1111.4
2016-Jul-22 20:33N 37°29' E 011°03'1111.1
2016-Jul-22 19:33N 37°25' E 011°16'1212.0
2016-Jul-22 18:33N 37°19' E 011°28'1212.5
2016-Jul-22 17:33N 37°13' E 011°42'1212.2
2016-Jul-22 16:33N 37°06' E 011°55'1211.8
2016-Jul-22 15:33N 37°00' E 012°07'1111.3
2016-Jul-22 14:33N 36°57' E 012°21'1111.2
2016-Jul-22 13:33N 36°54' E 012°34'1111.3
2016-Jul-22 12:33N 36°50' E 012°48'1111.5
2016-Jul-22 11:33N 36°48' E 013°02'1110.5
2016-Jul-22 10:33N 36°45' E 013°15'1110.6
2016-Jul-22 09:33N 36°43' E 013°28'1210.7
2016-Jul-22 08:27N 36°39' E 013°42'1011.7
2016-Jul-22 07:33N 36°36' E 013°54'2411.9
2016-Jul-22 05:33N 36°29' E 014°22'1111.2
2016-Jul-22 04:33N 36°25' E 014°35'9111.1
2016-Jul-21 20:23N 36°20' E 016°28'  
Track history (hours):
 
Tides and Currents Weather Stations Pressure Air Temp Water Temp Dewpoint Dewpoint Depression Visibility Wind Speed Wind Dir Waves Ship Positions

Maersk Bulan

Last reported at 2016-Jul-28 05:10 UTC. Time now 2016-Jul-30 13:04 UTC.
Position N 34°54' W 010°32'.

Length 223 m; draft 10.7 m.

Type: Ship (hazmat cat A). MMSI: 563455000.

Date/timePositionNaut miles runAvg speedWind from/ knotsBaromVisibWave heightAir tempDewpointWater temp
2016-Jul-28 05:10N 34°54' W 010°32'5712.0
2016-Jul-28 00:25N 35°10' W 009°25'4611.8
2016-Jul-27 20:33N 35°24' W 008°32'1211.5
2016-Jul-27 19:32N 35°28' W 008°19'2511.5
2016-Jul-27 17:24N 35°35' W 007°50'1011.2
2016-Jul-27 16:32N 35°38' W 007°38'1311.3
2016-Jul-27 15:22N 35°42' W 007°23'1311.5
2016-Jul-27 14:17N 35°45' W 007°08'811.5
2016-Jul-27 13:34N 35°48' W 006°58'2311.3
2016-Jul-27 11:33N 35°54' W 006°32'5210.4
2016-Jul-27 06:33N 35°60' W 005°28'9 9.1
2016-Jul-27 05:33N 36°09' W 005°24'1 1.4
2016-Jul-27 04:33N 36°08' W 005°26'0 0.0
2016-Jul-27 03:33N 36°08' W 005°26'0 0.0
2016-Jul-27 02:33N 36°08' W 005°26'0 0.0
2016-Jul-27 01:33N 36°08' W 005°26'0 0.0
2016-Jul-27 00:33N 36°08' W 005°26'0 0.0
2016-Jul-26 23:33N 36°08' W 005°26'0 0.0
2016-Jul-26 22:33N 36°08' W 005°26'0 0.0
2016-Jul-26 21:33N 36°08' W 005°26'0 0.0
2016-Jul-26 20:30N 36°08' W 005°26'0 0.0
2016-Jul-26 19:33N 36°08' W 005°26'0 0.0
2016-Jul-26 18:33N 36°08' W 005°26'0 0.0
2016-Jul-26 17:30N 36°08' W 005°26'0 0.0
2016-Jul-26 16:33N 36°08' W 005°26'0 0.0
2016-Jul-26 15:30N 36°08' W 005°26'0 0.0
2016-Jul-26 14:33N 36°08' W 005°26'0 0.0
2016-Jul-26 13:33N 36°08' W 005°26'0 0.0
2016-Jul-26 12:33N 36°08' W 005°26'0 0.0
2016-Jul-26 11:33N 36°08' W 005°26'0 0.0
2016-Jul-26 10:30N 36°08' W 005°26'0 0.0
2016-Jul-26 09:33N 36°08' W 005°26'0 0.0
2016-Jul-26 08:33N 36°08' W 005°26'0 0.0
2016-Jul-26 07:33N 36°08' W 005°26'0 0.0
2016-Jul-26 06:30N 36°08' W 005°26'0 0.0
2016-Jul-26 05:33N 36°08' W 005°26'0 0.0
2016-Jul-26 04:33N 36°08' W 005°26'0 0.0
2016-Jul-26 03:33N 36°08' W 005°26'0 0.0
2016-Jul-26 02:30N 36°08' W 005°26'0 0.0
2016-Jul-26 01:33N 36°08' W 005°26'0 0.0
2016-Jul-26 00:33N 36°08' W 005°26'2 2.1
2016-Jul-25 23:28N 36°08' W 005°23'1112.1
2016-Jul-25 22:33N 36°07' W 005°10'201 9.4
2016-Jul-25 01:07N 36°30' W 001°02'811.5
2016-Jul-25 00:22N 36°32' W 000°52'911.3
2016-Jul-24 23:33N 36°33' W 000°41'1311.2
2016-Jul-24 22:23N 36°36' W 000°25'3110.7
2016-Jul-24 19:32N 36°39' E 000°13'1111.3
2016-Jul-24 18:33N 36°41' E 000°27'2411.4
2016-Jul-24 16:25N 36°46' E 000°57'1211.3
2016-Jul-24 15:22N 36°47' E 001°11'39011.2
2016-Jul-23 04:33N 37°43' E 009°16'1010.1
2016-Jul-23 03:31N 37°42' E 009°29'10 9.8
2016-Jul-23 02:31N 37°41' E 009°41'1210.2
2016-Jul-23 01:21N 37°39' E 009°56'910.7
2016-Jul-23 00:32N 37°39' E 010°07'1111.0
2016-Jul-22 23:33N 37°38' E 010°21'1111.4
2016-Jul-22 22:33N 37°35' E 010°34'1211.6
2016-Jul-22 21:33N 37°32' E 010°49'1111.4
2016-Jul-22 20:33N 37°29' E 011°03'1111.1
2016-Jul-22 19:33N 37°25' E 011°16'1212.0
2016-Jul-22 18:33N 37°19' E 011°28'1212.5
2016-Jul-22 17:33N 37°13' E 011°42'1212.2
2016-Jul-22 16:33N 37°06' E 011°55'1211.8
2016-Jul-22 15:33N 37°00' E 012°07'1111.3
2016-Jul-22 14:33N 36°57' E 012°21'1111.2
2016-Jul-22 13:33N 36°54' E 012°34'1111.3
2016-Jul-22 12:33N 36°50' E 012°48'1111.5
2016-Jul-22 11:33N 36°48' E 013°02'1110.5
2016-Jul-22 10:33N 36°45' E 013°15'1110.6
2016-Jul-22 09:33N 36°43' E 013°28'1210.7
2016-Jul-22 08:27N 36°39' E 013°42'1011.7
2016-Jul-22 07:33N 36°36' E 013°54'2411.9
2016-Jul-22 05:33N 36°29' E 014°22'1111.2
2016-Jul-22 04:33N 36°25' E 014°35'9111.1
2016-Jul-21 20:23N 36°20' E 016°28'  

Dump ship's entire track history